Aérodrome :
LOGIN :

S'inscrire | Disclaimer

   EN    FR    IT 

 










Légende :    VFR   VFR Marginal   IFR   IFR Intensif   IFR Très Intensif
Visi : 
Plafond : 
>= 8 km
>= 3000ft
5 à 8 km
1000 à 3000 ft
1500m à 5 km
500 à 1000 ft
800 à 1500m
200 à 500 ft
< 800m
< 200 ft
Symboles :   Orages  Brouillard  Fortes neiges  Fortes précipitations  Vent > 20 kt
SIGMETs :   Divers  Orages  Givrage  Turbulence  Onde Orograph.  Cendres Volcan.







- Altitude de l'aérodrome : 526 ft
- Code IATA : LTN
- Voir les cartes d'approche


EGGW - London Luton

DERNIER METAR :
  • 230320Z AUTO 27013KT 9999 NCD 07/04 Q1032

METARs EXPIRÉS :
  • 230250Z AUTO 27010KT 9999 NCD 06/04 Q1032
  • 230220Z AUTO 27011KT 9999 NCD 06/04 Q1033
  • 230150Z AUTO 27007KT 9999 NCD 06/04 Q1034
  • 230120Z AUTO 25009KT 9999 NCD 06/04 Q1033
  • 230050Z AUTO 28010KT 9999 NCD 06/04 Q1034

TAF TAF EGGW
Valide du 23 à 00h jusqu'au 24 à 00h UTC


222258Z 2300/2324 28010KT 9999 FEW030
PROB30
TEMPO 2303/2310 BKN008
TEMPO 2309/2324 29015G25KT
ATIS : +44 1582 395 204
Pas de NOTAMs connus pour ce terrain.
2 SIGMETs publiés pour la FIR London (EGTT) :
 
Onde orographique forte
EGTT SIGMET 02 VALID 230200/230600 EGRR
EGTT LONDON FIR SEV MTW FCST WI N5500 W00530 - N5500 E00101 - N5302 E00134 - N5319 W00150 - N5430 W00530 - N5500 W00530 FL030/250 STNR NC=
Turbulence forte
EGTT SIGMET 01 VALID 230200/230600 EGRR
EGTT LONDON FIR SEV TURB FCST WI N5406 W00156 - N5500 W00403 - N5500 E00500 - N5450 E00451 - N5406 W00156 SFC/FL060 MOV SE 05KT NC=



MET'MAP, la Météo Aéronautique d'un coup d'oeil ! - Copyright ORBIFLY Décembre 2007 - Disclaimer

ORBIFLY MET'MAP TEAM :

Programmation & Développement : Alexandra Zaïnal
Conception & Développement : Baudouin d'Aumeries
Co-Programmation & Développement : Marc-Olivier Méhu
Soutien technique & logistique : Manuel Goepfert

Contact : metmap@orbifly.com




SOURCES & CREDITS :

   NOAA